Latest Weather Observations for Robe Airport

IDS60801

Issued at 5:35 pm CST Thursday 24 April 2014 (issued every 30 minutes, with the page automatically refreshed every 10 minutes)

About weather observations | Map of weather stations | Latest weather observations for SA | Other Formats
Station Details ID: 026105 Name: ROBE AIRFIELD Lat: -37.18 Lon: 139.81 Height: 3.0 m
Data from the previous 72 hours. | See also: Recent months for locations in South Australia
Date/Time
CST
Temp
°C
App
Temp
°C
Dew
Point
Rel
Hum
%
Delta-T
°C
Wind Press
QNH
hPa
Press
MSL
hPa
Rain
since 9 am
mm
Dir
 
Spd
km/h
Gust
km/h
Spd
kts
Gust
kts
24/05:30pm 12.7 10.2 6.5 66 2.9 S 9 13 5 7 1019.5 1019.5 0.0
24/05:00pm 14.3 11.7 6.2 58 3.9 SSW 9 13 5 7 1019.6 - 0.0
24/04:30pm 14.9 11.2 6.5 57 4.1 S 15 20 8 11 1019.3 1019.3 0.0
24/04:00pm 15.6 12.0 6.9 56 4.3 S 15 22 8 12 1019.2 - 0.0
24/03:30pm 15.8 12.1 6.3 53 4.6 S 15 24 8 13 1019.1 1019.1 0.0
24/03:00pm 16.2 12.6 4.9 47 5.3 SSW 13 20 7 11 1019.1 1019.1 0.0
24/02:30pm 15.6 12.0 4.9 49 5.0 SSW 13 22 7 12 1018.8 1018.8 0.0
24/02:00pm 16.2 12.1 6.3 52 4.8 S 17 26 9 14 1018.6 - 0.0
24/01:30pm 16.6 12.0 6.7 52 4.9 S 20 28 11 15 1018.6 1018.6 0.0
24/01:00pm 16.6 12.0 5.6 48 5.3 S 19 24 10 13 1018.8 - 0.0
24/12:30pm 16.7 12.3 5.0 46 5.6 S 17 28 9 15 1019.1 1019.1 0.0
24/12:00pm 16.4 11.5 4.1 44 5.7 S 19 30 10 16 1019.2 1019.2 0.0
24/11:30am 16.5 11.6 4.2 44 5.7 SSW 19 30 10 16 1019.2 1019.2 0.0
24/11:00am 15.4 10.5 5.0 50 4.9 S 20 26 11 14 1019.2 - 0.0
24/10:30am 15.9 11.4 6.1 52 4.7 S 19 28 10 15 1019.0 1019.0 0.0
24/10:00am 15.4 10.5 5.3 51 4.8 S 20 30 11 16 1018.9 - 0.0
24/09:30am 15.2 10.5 6.0 54 4.4 S 20 30 11 16 1018.5 1018.5 0.0
24/09:00am 15.6 10.5 6.1 53 4.6 SSW 22 32 12 17 1018.4 1018.4 3.2
24/08:30am 14.5 9.2 5.0 53 4.4 SSW 22 35 12 19 1018.1 1018.1 3.2
24/08:00am 14.1 8.6 6.0 58 3.9 SSW 24 37 13 20 1017.5 - 3.2
24/07:30am 13.8 9.6 7.3 65 3.2 SSW 19 32 10 17 1016.9 1016.9 3.2
24/07:00am 13.1 9.4 6.5 64 3.2 SW 15 22 8 12 1016.3 - 3.2
24/06:30am 13.1 7.7 6.5 64 3.1 SSW 24 41 13 22 1015.9 1015.9 3.2
24/06:00am 13.8 9.7 8.8 72 2.5 SSW 20 30 11 16 1015.4 1015.4 3.2
24/05:30am 14.3 9.1 8.9 70 2.7 SSW 26 43 14 23 1014.7 1014.7 3.2
24/05:00am 14.4 10.3 10.2 76 2.2 SSW 22 39 12 21 1014.2 - 3.2
24/04:30am 14.5 9.5 11.1 80 1.8 SSW 28 39 15 21 1013.6 1013.6 3.2
24/04:00am 14.3 10.1 12.3 88 1.1 SSW 26 41 14 22 1012.9 - 3.2
24/03:30am 15.0 10.8 13.4 90 0.9 SW 28 41 15 22 1012.4 1012.4 3.2
24/03:00am 14.5 12.0 13.4 93 0.6 WSW 19 35 10 19 1012.2 1012.2 3.2
24/02:30am 16.2 13.7 14.2 88 1.1 WNW 20 32 11 17 1011.7 1011.7 0.6
24/02:06am 16.4 12.5 14.4 88 1.1 NW 28 50 15 27 1011.7 - 0.6
24/02:00am 16.4 12.9 14.4 88 1.1 NW 26 35 14 19 1011.7 - 0.6
24/01:30am 16.1 12.5 14.1 88 1.1 NW 26 37 14 20 1011.9 1011.9 0.6
24/01:00am 16.0 12.8 14.2 89 1.0 NW 24 37 13 20 1011.9 - 0.6
24/12:30am 16.0 12.7 14.0 88 1.1 NW 24 33 13 18 1012.0 1012.0 0.6
24/12:00am 15.8 12.2 14.2 90 0.9 NW 26 37 14 20 1012.2 1012.2 0.6
 
Date/Time
CST
Temp
°C
App
Temp
°C
Dew
Point
Rel
Hum
%
Delta-T
°C
Wind Press
QNH
hPa
Press
MSL
hPa
Rain
since 9 am
mm
Dir
 
Spd
km/h
Gust
km/h
Spd
kts
Gust
kts
23/11:30pm 15.6 11.9 13.8 89 1.0 NW 26 37 14 20 1012.2 1012.2 0.6
23/11:00pm 15.6 12.6 13.6 88 1.1 NW 22 30 12 16 1012.5 - 0.6
23/10:30pm 15.7 13.2 14.1 90 0.9 NW 20 32 11 17 1012.6 1012.6 0.6
23/10:00pm 15.5 12.9 13.9 90 0.9 NW 20 32 11 17 1012.8 - 0.6
23/09:30pm 15.6 12.3 14.0 90 0.9 NW 24 32 13 17 1013.0 1013.0 0.4
23/09:00pm 15.1 11.7 13.8 92 0.7 NW 24 35 13 19 1013.0 1013.0 0.4
23/08:30pm 16.0 13.2 13.3 84 1.5 NW 20 28 11 15 1013.1 1013.1 0.0
23/08:00pm 16.1 13.5 13.2 83 1.6 NNW 19 26 10 14 1013.1 - 0.0
23/07:30pm 16.0 13.4 13.1 83 1.6 NNW 19 26 10 14 1013.1 1013.1 0.0
23/07:00pm 15.2 12.4 12.7 85 1.4 N 19 22 10 12 1013.0 - 0.0
23/06:30pm 15.0 12.1 12.3 84 1.5 N 19 26 10 14 1012.9 1012.9 0.0
23/06:00pm 15.0 12.4 12.1 83 1.6 N 17 22 9 12 1012.9 1012.9 0.0
23/05:30pm 15.1 12.0 12.1 82 1.6 NNW 20 30 11 16 1013.0 1013.0 0.0
23/05:00pm 15.7 11.4 11.9 78 2.1 NNW 26 33 14 18 1013.0 - 0.0
23/04:30pm 16.0 11.6 11.6 75 2.4 NNW 26 35 14 19 1013.0 1013.0 0.0
23/04:00pm 17.1 12.7 11.8 71 2.9 NNW 26 33 14 18 1013.2 - 0.0
23/03:30pm 16.7 12.4 10.8 68 3.2 NNW 24 33 13 18 1013.4 1013.4 0.0
23/03:00pm 17.7 12.9 10.3 62 3.9 NNW 26 35 14 19 1013.5 1013.5 0.0
23/02:30pm 16.9 11.9 11.0 68 3.2 NNW 28 35 15 19 1013.8 1013.8 0.0
23/02:00pm 18.0 13.1 12.7 71 3.0 NNW 30 39 16 21 1013.9 - 0.0
23/01:30pm 18.0 12.4 10.1 60 4.2 NNW 30 39 16 21 1014.3 1014.3 0.0
23/01:00pm 18.4 13.5 11.2 63 3.9 NNW 28 39 15 21 1014.6 - 0.0
23/12:30pm 17.7 13.0 10.6 63 3.8 NNW 26 37 14 20 1015.3 1015.3 0.0
23/12:00pm 17.9 12.9 10.8 63 3.8 NNW 28 35 15 19 1015.7 1015.7 0.0
23/11:30am 18.0 13.9 11.3 65 3.6 NNW 24 33 13 18 1016.2 1016.2 0.0
23/11:00am 17.2 13.4 11.0 67 3.3 NNW 22 30 12 16 1016.6 - 0.0
23/10:30am 17.1 13.5 10.7 66 3.4 NW 20 28 11 15 1016.8 1016.8 0.0
23/10:00am 16.9 13.6 11.0 68 3.2 NNW 19 26 10 14 1016.9 - 0.0
23/09:30am 16.0 14.3 11.2 73 2.6 N 11 17 6 9 1017.1 1017.1 0.0
23/09:00am 15.5 13.8 11.1 75 2.3 NNW 11 17 6 9 1017.1 1017.1 0.4
23/08:30am 13.1 12.5 11.8 92 0.7 NNW 6 9 3 5 1017.2 1017.2 0.4
23/08:00am 10.7 10.1 10.5 99 0.1 N 4 6 2 3 1017.3 - 0.4
23/07:30am 8.2 7.0 7.9 98 0.1 N 4 6 2 3 1017.0 1017.0 0.4
23/07:00am 6.6 5.0 6.2 97 0.2 N 4 4 2 2 1016.7 - 0.4
23/06:30am 6.9 5.4 6.6 98 0.1 N 4 7 2 4 1016.7 1016.7 0.4
23/06:00am 6.7 5.9 6.3 97 0.2 CALM 0 0 0 0 1016.7 1016.7 0.4
23/05:30am 7.3 5.8 7.0 98 0.1 N 4 6 2 3 1016.9 1016.9 0.4
23/05:00am 6.8 5.6 6.5 98 0.1 N 2 6 1 3 1017.1 - 0.4
23/04:30am 6.9 5.4 6.6 98 0.1 N 4 6 2 3 1017.0 1017.0 0.4
23/04:00am 6.8 5.2 6.5 98 0.1 N 4 6 2 3 1016.7 - 0.4
23/03:30am 6.4 4.7 6.0 97 0.2 N 4 6 2 3 1016.7 1016.7 0.4
23/03:00am 6.6 5.0 6.2 97 0.2 N 4 4 2 2 1016.9 1016.9 0.4
23/02:30am 7.3 5.8 6.9 97 0.2 N 4 6 2 3 1017.2 1017.2 0.4
23/02:00am 7.5 6.1 7.1 97 0.2 N 4 7 2 4 1017.0 - 0.4
23/01:30am 7.1 5.5 6.5 96 0.3 N 4 7 2 4 1017.5 1017.5 0.4
23/01:00am 8.7 7.9 8.3 97 0.2 N 2 4 1 2 1017.9 - 0.4
23/12:30am 8.3 7.1 8.0 98 0.1 N 4 6 2 3 1018.2 1018.2 0.4
23/12:00am 8.0 7.4 7.6 97 0.2 CALM 0 0 0 0 1017.8 1017.8 0.4
 
Date/Time
CST
Temp
°C
App
Temp
°C
Dew
Point
Rel
Hum
%
Delta-T
°C
Wind Press
QNH
hPa
Press
MSL
hPa
Rain
since 9 am
mm
Dir
 
Spd
km/h
Gust
km/h
Spd
kts
Gust
kts
22/11:30pm 6.7 5.0 5.8 94 0.4 N 4 6 2 3 1017.9 1017.9 0.4
22/11:00pm 8.4 7.8 7.6 95 0.4 CALM 0 0 0 0 1018.4 - 0.4
22/10:30pm 9.7 9.4 8.8 94 0.4 CALM 0 0 0 0 1018.7 1018.7 0.4
22/10:00pm 11.0 10.4 10.4 96 0.3 NW 4 4 2 2 1018.8 - 0.4
22/09:30pm 11.2 11.0 10.6 96 0.3 W 2 6 1 3 1018.8 1018.8 0.4
22/09:00pm 9.8 9.2 8.9 94 0.4 SW 2 4 1 2 1018.8 1018.8 0.2
22/08:30pm 8.3 7.6 6.8 90 0.7 CALM 0 0 0 0 1018.6 1018.6 0.0
22/08:00pm 9.2 8.6 7.3 88 0.9 CALM 0 4 0 2 1018.5 - 0.0
22/07:30pm 10.6 9.3 7.7 82 1.4 WSW 4 6 2 3 1018.4 1018.4 0.0
22/07:00pm 12.2 10.8 9.0 81 1.6 WSW 6 7 3 4 1018.2 - 0.0
22/06:30pm 12.1 10.8 7.8 75 2.1 WSW 4 6 2 3 1018.0 1018.0 0.0
22/06:00pm 13.0 11.8 7.9 71 2.5 WSW 4 7 2 4 1017.7 1017.7 0.0
22/05:30pm 14.3 12.5 7.8 65 3.2 SW 7 13 4 7 1017.4 1017.4 0.0
22/05:00pm 15.9 12.6 8.2 60 3.9 SW 15 24 8 13 1017.3 - 0.0
22/04:30pm 16.6 13.4 8.3 58 4.2 SW 15 22 8 12 1017.1 1017.1 0.0
22/04:00pm 17.1 13.5 8.5 57 4.4 SW 17 24 9 13 1017.0 - 0.0
22/03:30pm 17.3 13.6 9.5 60 4.1 SW 19 26 10 14 1016.9 1016.9 0.0
22/03:00pm 17.5 14.2 9.4 59 4.2 SW 17 28 9 15 1016.6 1016.6 0.0
22/02:30pm 18.0 15.0 10.6 62 4.0 SW 17 24 9 13 1016.5 1016.5 0.0
22/02:00pm 17.8 14.4 10.4 62 3.9 SW 19 26 10 14 1016.3 - 0.0
22/01:30pm 17.9 14.9 10.8 63 3.8 SW 17 26 9 14 1016.3 1016.3 0.0
22/01:00pm 17.1 14.8 10.5 65 3.5 WSW 13 22 7 12 1016.5 - 0.0
22/12:30pm 17.8 15.8 10.2 61 4.0 WSW 11 19 6 10 1016.5 1016.5 0.0
22/12:00pm 17.3 14.6 10.4 64 3.7 WSW 15 22 8 12 1016.8 1016.8 0.0
22/11:30am 17.8 14.8 9.4 58 4.4 SW 15 22 8 12 1016.8 1016.8 0.0
22/11:00am 17.5 14.5 9.2 58 4.3 SW 15 24 8 13 1016.8 - 0.0
22/10:30am 17.6 13.9 9.5 59 4.2 SW 19 26 10 14 1016.7 1016.7 0.0
22/10:00am 17.5 14.4 10.4 63 3.8 SW 17 28 9 15 1016.5 - 0.0
22/09:30am 17.3 14.3 10.7 65 3.5 SW 17 26 9 14 1016.4 1016.4 0.0
22/09:00am 16.7 13.5 10.1 65 3.5 SW 17 24 9 13 1016.1 1016.1 3.6
22/08:30am 16.2 13.2 10.5 69 3.0 SW 17 24 9 13 1015.9 1015.9 3.6
22/08:00am 16.2 13.9 11.8 75 2.4 SW 15 28 8 15 1015.5 - 3.6
22/07:30am 14.9 14.0 11.3 79 1.9 SW 7 13 4 7 1015.1 1015.1 3.6
22/07:00am 14.0 12.9 10.6 80 1.8 SW 7 13 4 7 1014.6 - 3.6
22/06:30am 14.2 12.6 11.4 83 1.5 SW 11 15 6 8 1014.2 1014.2 3.6
22/06:00am 14.5 13.3 11.7 83 1.5 SW 9 13 5 7 1013.9 1013.9 3.6
22/05:30am 15.0 12.9 12.3 84 1.5 SW 15 24 8 13 1013.9 1013.9 3.6
22/05:00am 15.3 13.8 13.2 87 1.2 SW 13 24 7 13 1013.5 - 3.6
22/04:30am 15.6 14.0 14.0 90 0.9 SW 15 20 8 11 1012.9 1012.9 3.6
22/04:00am 15.4 14.0 13.4 88 1.1 SW 13 19 7 10 1012.3 - 3.6
22/03:30am 15.9 15.2 14.4 91 0.9 W 11 26 6 14 1012.0 1012.0 3.6
22/03:00am 15.7 14.6 14.4 92 0.7 W 13 19 7 10 1011.6 1011.6 3.6
22/02:30am 16.1 14.6 14.1 88 1.1 WNW 15 24 8 13 1011.6 1011.6 3.6
22/02:00am 16.4 14.0 13.7 84 1.5 NW 19 22 10 12 1010.9 - 3.4
22/01:30am 16.0 14.5 14.2 89 1.0 NW 15 24 8 13 1011.8 1011.8 2.8
22/01:00am 16.4 17.0 15.4 94 0.6 SW 6 9 3 5 1011.5 - 1.2
22/12:30am 16.8 17.6 15.8 94 0.6 WSW 6 9 3 5 1011.9 1011.9 1.2
22/12:00am 16.8 17.6 15.8 94 0.6 WSW 6 9 3 5 1012.0 1012.0 1.0
 
Date/Time
CST
Temp
°C
App
Temp
°C
Dew
Point
Rel
Hum
%
Delta-T
°C
Wind Press
QNH
hPa
Press
MSL
hPa
Rain
since 9 am
mm
Dir
 
Spd
km/h
Gust
km/h
Spd
kts
Gust
kts
21/11:30pm 16.8 18.0 15.8 94 0.6 W 4 6 2 3 1011.2 1011.2 1.0
21/11:00pm 17.2 18.5 16.2 94 0.6 W 4 7 2 4 1011.0 - 1.0
21/10:30pm 16.7 17.2 15.6 93 0.6 W 7 9 4 5 1011.3 1011.3 1.0
21/10:00pm 16.9 17.1 15.8 93 0.6 NNW 9 11 5 6 1011.0 - 1.0
21/09:30pm 17.1 16.9 15.6 91 0.9 N 11 17 6 9 1010.7 1010.7 1.0
21/09:00pm 17.1 16.7 15.3 89 1.0 NW 11 17 6 9 1012.1 1012.1 0.8
21/08:30pm 16.7 17.2 14.9 89 1.0 N 6 7 3 4 1010.7 1010.7 0.8
21/08:00pm 17.0 16.2 15.0 88 1.2 NNE 13 17 7 9 1010.4 - 0.6
21/07:30pm 17.3 16.8 14.9 86 1.4 N 11 13 6 7 1010.9 1010.9 0.4
21/07:00pm 17.5 17.2 14.4 82 1.8 N 9 11 5 6 1010.7 - 0.0
21/06:30pm 18.5 18.2 14.4 77 2.4 NNW 9 13 5 7 1010.5 1010.5 0.0
21/06:00pm 18.8 17.7 14.3 75 2.6 NNW 13 17 7 9 1010.4 1010.4 0.0

Other Formats:

Comma delimited format used in spreadsheet applications
http://www.bom.gov.au/fwo/IDS60801/IDS60801.95816.axf

JavaScript Object Notation format (JSON) in row-major order
http://www.bom.gov.au/fwo/IDS60801/IDS60801.95816.json